createdAt,value
2023-03-28T00:00:19.691Z,0.87
2023-03-28T00:02:46.592Z,0.96
2023-03-28T00:05:13.835Z,1.01
2023-03-28T00:08:06.721Z,0.84
2023-03-28T00:10:33.814Z,0.74
2023-03-28T00:13:00.599Z,0.88
2023-03-28T00:15:28.681Z,0.99
2023-03-28T00:17:55.459Z,0.84
2023-03-28T00:20:22.314Z,0.90
2023-03-28T00:22:51.540Z,0.99
2023-03-28T00:25:18.383Z,1.04
2023-03-28T00:27:45.124Z,1.10
2023-03-28T00:30:12.485Z,1.01
2023-03-28T00:32:45.616Z,1.04
2023-03-28T00:35:15.996Z,0.98
2023-03-28T00:37:54.588Z,1.11
2023-03-28T00:40:22.050Z,1.24
2023-03-28T00:42:48.821Z,1.24
2023-03-28T00:45:15.498Z,1.22
2023-03-28T00:48:15.223Z,1.04
2023-03-28T00:50:52.466Z,0.97
2023-03-28T00:53:21.621Z,1.01
2023-03-28T00:56:08.977Z,1.05
2023-03-28T00:58:41.483Z,0.98
2023-03-28T01:01:11.152Z,0.89
2023-03-28T01:03:41.475Z,1.01
2023-03-28T01:06:09.501Z,1.12
2023-03-28T01:08:40.801Z,1.06
2023-03-28T01:11:11.560Z,1.03
2023-03-28T01:13:42.616Z,1.08
2023-03-28T01:16:10.711Z,1.01
2023-03-28T01:18:41.481Z,0.87
2023-03-28T01:21:14.358Z,0.93
2023-03-28T01:24:29.149Z,1.04
2023-03-28T01:27:29.761Z,0.93
2023-03-28T01:30:42.906Z,0.94
2023-03-28T01:33:58.769Z,0.85
2023-03-28T01:36:49.805Z,0.81
2023-03-28T01:39:35.176Z,0.82
2023-03-28T01:42:11.423Z,0.98
2023-03-28T01:44:41.465Z,0.91
2023-03-28T01:47:19.858Z,0.91
2023-03-28T01:50:03.468Z,0.92
2023-03-28T01:53:08.786Z,0.81
2023-03-28T01:55:41.552Z,0.83
2023-03-28T01:58:46.503Z,0.89
2023-03-28T02:01:27.655Z,0.90
2023-03-28T02:04:01.034Z,1.01
2023-03-28T02:06:51.640Z,1.11
2023-03-28T02:09:26.059Z,1.20
2023-03-28T02:12:09.502Z,1.19
2023-03-28T02:14:58.296Z,1.24
2023-03-28T02:17:52.032Z,1.26
2023-03-28T02:20:46.595Z,1.25
2023-03-28T02:23:20.301Z,1.19
2023-03-28T02:26:07.543Z,1.19
2023-03-28T02:28:57.986Z,1.27
2023-03-28T02:31:37.190Z,1.19
2023-03-28T02:34:04.032Z,1.21
2023-03-28T02:36:58.881Z,1.29
2023-03-28T02:39:30.261Z,1.33
2023-03-28T02:42:21.792Z,1.26
2023-03-28T02:45:07.126Z,1.22
2023-03-28T02:48:07.712Z,1.12
2023-03-28T02:50:36.240Z,0.97
2023-03-28T02:53:02.840Z,0.95
2023-03-28T02:55:54.528Z,0.98
2023-03-28T02:59:02.043Z,0.98
2023-03-28T03:01:32.087Z,0.97
2023-03-28T03:04:07.295Z,1.06
2023-03-28T03:06:35.290Z,1.15
2023-03-28T03:09:02.325Z,1.10
2023-03-28T03:11:29.023Z,1.11
2023-03-28T03:13:57.541Z,0.97
2023-03-28T03:16:29.381Z,1.11
2023-03-28T03:18:57.703Z,1.15
2023-03-28T03:21:25.413Z,1.15
2023-03-28T03:23:56.889Z,1.04
2023-03-28T03:26:24.017Z,1.16
2023-03-28T03:29:00.726Z,1.12
2023-03-28T03:31:27.850Z,1.07
2023-03-28T03:34:20.151Z,1.05
2023-03-28T03:36:56.360Z,1.04
2023-03-28T03:39:23.672Z,0.97
2023-03-28T03:41:52.432Z,0.91
2023-03-28T03:44:46.250Z,0.54
2023-03-28T03:47:15.021Z,0.39
2023-03-28T03:49:41.935Z,0.22
2023-03-28T03:52:08.565Z,-0.06
2023-03-28T03:54:38.437Z,-0.09
2023-03-28T03:57:05.824Z,-0.22
2023-03-28T03:59:32.832Z,-0.43
2023-03-28T04:02:00.026Z,-0.47
2023-03-28T04:04:53.654Z,-0.51
2023-03-28T04:07:26.966Z,-0.34
2023-03-28T04:09:56.900Z,-0.06
2023-03-28T04:12:29.097Z,-0.25
2023-03-28T04:14:56.348Z,-0.15
2023-03-28T04:17:34.454Z,-0.04
2023-03-28T04:20:22.449Z,0.01
2023-03-28T04:23:33.950Z,-0.05
2023-03-28T04:26:08.840Z,0.19
2023-03-28T04:29:12.426Z,0.02
2023-03-28T04:31:49.762Z,0.27
2023-03-28T04:34:54.910Z,0.34
2023-03-28T04:37:21.588Z,0.32
2023-03-28T04:39:54.078Z,0.30
2023-03-28T04:42:29.247Z,0.34
2023-03-28T04:45:18.077Z,0.35
2023-03-28T04:47:46.322Z,0.33
2023-03-28T04:50:18.276Z,0.35
2023-03-28T04:52:45.734Z,0.35
2023-03-28T04:55:16.150Z,0.43
2023-03-28T04:57:43.949Z,0.39
2023-03-28T05:00:17.113Z,0.53
2023-03-28T05:03:14.291Z,0.56
2023-03-28T05:05:55.202Z,0.64
2023-03-28T05:08:43.853Z,0.61
2023-03-28T05:11:36.342Z,0.43
2023-03-28T05:14:03.179Z,0.42
2023-03-28T05:16:45.015Z,0.35
2023-03-28T05:19:27.130Z,0.28
2023-03-28T05:22:31.820Z,0.17
2023-03-28T05:25:03.235Z,0.18
2023-03-28T05:27:49.446Z,0.25
2023-03-28T05:30:22.771Z,0.29
2023-03-28T05:32:52.957Z,0.66
2023-03-28T05:35:20.444Z,0.50
2023-03-28T05:38:14.383Z,0.48
2023-03-28T05:40:42.625Z,0.48
2023-03-28T05:43:09.441Z,0.41
2023-03-28T05:45:38.673Z,0.54
2023-03-28T05:48:21.780Z,0.49
2023-03-28T05:51:06.998Z,0.52
2023-03-28T05:53:37.984Z,0.47
2023-03-28T05:56:06.458Z,0.36
2023-03-28T05:58:36.520Z,0.38
2023-03-28T06:01:12.866Z,0.39
2023-03-28T06:06:57.258Z,0.65
2023-03-28T06:09:25.866Z,0.77
2023-03-28T06:12:06.744Z,1.12
2023-03-28T06:14:35.316Z,1.06
2023-03-28T06:17:09.544Z,1.05
2023-03-28T06:20:38.680Z,0.95
2023-03-28T06:23:12.298Z,0.90
2023-03-28T06:29:57.635Z,0.90
2023-03-28T06:32:33.083Z,0.88
2023-03-28T06:35:05.799Z,1.05
2023-03-28T06:37:39.332Z,1.16
2023-03-28T06:40:17.713Z,1.23
2023-03-28T07:03:21.579Z,1.25
2023-03-28T07:05:48.696Z,1.21
2023-03-28T07:08:17.164Z,1.50
2023-03-28T07:10:57.675Z,2.15
2023-03-28T07:42:46.138Z,2.89
2023-03-28T07:45:12.915Z,2.80
2023-03-28T07:47:57.468Z,3.10
2023-03-28T07:50:30.729Z,3.61
2023-03-28T07:56:10.569Z,3.04
2023-03-28T07:58:53.899Z,3.40
2023-03-28T08:01:27.325Z,3.49
2023-03-28T08:03:59.655Z,3.89
2023-03-28T08:07:02.397Z,4.15
2023-03-28T08:09:40.607Z,4.33
2023-03-28T08:12:48.709Z,3.92
2023-03-28T08:15:15.540Z,4.45
2023-03-28T08:18:08.456Z,4.50
2023-03-28T08:20:37.030Z,4.88
2023-03-28T08:23:35.479Z,4.93
2023-03-28T08:26:21.965Z,5.05
2023-03-28T08:28:54.768Z,5.47
2023-03-28T08:31:26.812Z,5.40
2023-03-28T08:33:59.644Z,5.17
2023-03-28T08:36:32.538Z,5.18
2023-03-28T08:39:00.850Z,5.18
2023-03-28T08:42:23.500Z,4.76
2023-03-28T08:44:57.710Z,5.05
2023-03-28T08:47:53.376Z,5.32
2023-03-28T08:50:40.278Z,5.06
2023-03-28T08:53:24.154Z,5.46
2023-03-28T08:55:53.693Z,5.71
2023-03-28T08:58:23.314Z,5.66
2023-03-28T09:00:53.656Z,6.26
2023-03-28T09:03:22.496Z,6.36
2023-03-28T09:06:08.126Z,5.79
2023-03-28T09:08:44.956Z,5.75
2023-03-28T09:11:29.104Z,5.37
2023-03-28T09:14:40.939Z,5.21
2023-03-28T09:17:35.185Z,5.00
2023-03-28T09:20:44.164Z,5.27
2023-03-28T09:23:40.052Z,5.62
2023-03-28T09:26:36.354Z,5.72
2023-03-28T09:29:13.805Z,5.67
2023-03-28T09:31:44.510Z,5.65
2023-03-28T09:34:30.573Z,5.81
2023-03-28T09:40:36.568Z,5.30
2023-03-28T09:44:02.866Z,5.18
2023-03-28T09:46:43.393Z,4.87
2023-03-28T09:49:26.202Z,4.97
2023-03-28T09:51:57.167Z,5.39
2023-03-28T10:19:11.563Z,6.79
2023-03-28T10:21:56.804Z,6.80
2023-03-28T10:24:27.281Z,6.38
2023-03-28T10:27:07.712Z,6.15
2023-03-28T10:29:44.755Z,6.45
2023-03-28T10:32:14.443Z,6.39
2023-03-28T10:35:25.797Z,7.11
2023-03-28T10:38:04.988Z,7.39
2023-03-28T10:41:26.164Z,7.06
2023-03-28T10:44:32.571Z,7.02
2023-03-28T10:47:06.298Z,7.50
2023-03-28T10:49:51.454Z,7.53
2023-03-28T10:52:25.899Z,7.48
2023-03-28T10:55:17.173Z,7.04
2023-03-28T10:58:10.984Z,7.19
2023-03-28T11:01:20.399Z,7.43
2023-03-28T11:04:05.014Z,6.81
2023-03-28T11:06:50.910Z,6.90
2023-03-28T11:09:28.904Z,6.67
2023-03-28T11:12:43.861Z,6.89
2023-03-28T11:15:41.232Z,6.79
2023-03-28T11:18:40.817Z,7.00
2023-03-28T11:21:39.164Z,7.13
2023-03-28T11:24:39.839Z,6.49
2023-03-28T11:27:44.852Z,6.41
2023-03-28T11:30:33.370Z,6.12
2023-03-28T11:33:26.164Z,6.21
2023-03-28T11:36:07.533Z,6.06
2023-03-28T11:38:48.847Z,6.08
2023-03-28T11:41:30.007Z,6.38
2023-03-28T11:44:39.134Z,6.93
2023-03-28T11:47:12.258Z,6.53
2023-03-28T11:50:38.546Z,6.60
2023-03-28T11:53:16.599Z,6.73
2023-03-28T11:56:46.287Z,6.48
2023-03-28T11:59:39.255Z,6.55
2023-03-28T12:03:20.897Z,6.37
2023-03-28T12:07:02.522Z,6.80
2023-03-28T12:10:16.717Z,6.97
2023-03-28T12:13:41.667Z,7.00
2023-03-28T12:16:20.451Z,6.87
2023-03-28T12:18:51.479Z,6.96
2023-03-28T12:21:46.040Z,7.39
2023-03-28T12:24:47.700Z,7.21
2023-03-28T12:30:43.357Z,7.29
2023-03-28T12:33:11.845Z,7.55
2023-03-28T12:40:36.339Z,7.48
2023-03-28T12:43:34.061Z,7.65
2023-03-28T12:46:04.538Z,7.19
2023-03-28T12:48:46.220Z,7.75
2023-03-28T12:51:30.321Z,7.67
2023-03-28T12:54:37.128Z,7.63
2023-03-28T12:57:14.163Z,7.70
2023-03-28T13:00:16.859Z,8.23
2023-03-28T13:07:57.296Z,8.15
2023-03-28T13:10:27.640Z,7.96
2023-03-28T13:13:45.740Z,8.60
2023-03-28T13:16:45.610Z,8.35
2023-03-28T13:19:16.488Z,8.56
2023-03-28T13:21:56.568Z,8.36
2023-03-28T13:29:27.237Z,7.86
2023-03-28T13:32:17.774Z,8.10
2023-03-28T13:35:35.652Z,7.94
2023-03-28T13:42:35.484Z,7.38
2023-03-28T13:45:21.881Z,6.96
2023-03-28T13:48:13.192Z,6.80
2023-03-28T13:50:40.792Z,6.56
2023-03-28T13:53:07.563Z,6.95
2023-03-28T13:55:34.299Z,6.50
2023-03-28T13:58:12.463Z,6.79
2023-03-28T14:00:39.458Z,7.20
2023-03-28T14:03:14.435Z,7.83
2023-03-28T14:12:58.328Z,6.94
2023-03-28T14:15:30.097Z,7.23
2023-03-28T14:17:58.811Z,7.31
2023-03-28T14:20:26.464Z,7.71
2023-03-28T14:23:00.520Z,7.47
2023-03-28T14:25:28.869Z,7.02
2023-03-28T14:27:56.987Z,7.50
2023-03-28T14:30:26.140Z,7.04
2023-03-28T14:32:59.161Z,6.89
2023-03-28T14:35:30.799Z,7.16
2023-03-28T14:38:03.005Z,6.90
2023-03-28T14:40:32.722Z,6.45
2023-03-28T14:43:02.131Z,6.77
2023-03-28T14:45:29.557Z,6.88
2023-03-28T14:48:00.380Z,7.06
2023-03-28T14:50:33.032Z,6.58
2023-03-28T14:53:18.157Z,6.91
2023-03-28T14:56:13.188Z,7.06
2023-03-28T14:58:42.485Z,6.77
2023-03-28T15:01:11.472Z,7.10
2023-03-28T15:03:46.538Z,7.07
2023-03-28T15:06:15.567Z,7.28
2023-03-28T15:08:44.516Z,7.46
2023-03-28T15:11:11.092Z,7.60
2023-03-28T15:13:39.827Z,7.80
2023-03-28T15:16:08.185Z,7.74
2023-03-28T15:18:46.811Z,7.56
2023-03-28T15:21:14.020Z,7.55
2023-03-28T15:23:47.354Z,7.21
2023-03-28T15:27:11.679Z,7.19
2023-03-28T15:58:51.831Z,6.80
2023-03-28T16:06:54.126Z,7.04
2023-03-28T16:10:00.368Z,7.02
2023-03-28T16:12:29.784Z,6.85
2023-03-28T16:15:31.562Z,6.79
2023-03-28T16:18:13.590Z,6.76
2023-03-28T16:20:56.535Z,6.65
2023-03-28T16:23:23.554Z,6.76
2023-03-28T16:25:50.302Z,6.78
2023-03-28T16:28:21.409Z,6.54
2023-03-28T16:30:48.136Z,6.41
2023-03-28T16:33:14.953Z,6.53
2023-03-28T16:35:41.665Z,6.55
2023-03-28T16:38:10.854Z,6.45
2023-03-28T16:40:45.322Z,6.39
2023-03-28T16:43:13.189Z,6.31
2023-03-28T16:45:39.996Z,6.15
2023-03-28T16:48:09.962Z,6.35
2023-03-28T16:51:13.707Z,6.30
2023-03-28T16:53:43.430Z,6.23
2023-03-28T16:56:15.346Z,6.48
2023-03-28T16:58:42.695Z,6.31
2023-03-28T17:01:34.393Z,6.09
2023-03-28T17:04:01.331Z,6.06
2023-03-28T17:06:28.464Z,5.92
2023-03-28T17:08:55.355Z,5.80
2023-03-28T17:11:31.577Z,5.69
2023-03-28T17:13:59.130Z,5.67
2023-03-28T17:16:26.255Z,5.63
2023-03-28T17:19:00.515Z,5.49
2023-03-28T17:21:27.435Z,5.59
2023-03-28T17:23:55.390Z,5.54
2023-03-28T17:29:03.604Z,5.39
2023-03-28T17:31:32.091Z,5.31
2023-03-28T17:34:02.456Z,5.11
2023-03-28T17:36:29.797Z,5.02
2023-03-28T17:38:58.004Z,4.95
2023-03-28T17:41:37.818Z,4.86
2023-03-28T17:44:16.490Z,4.78
2023-03-28T17:46:44.586Z,4.63
2023-03-28T17:49:14.788Z,4.56
2023-03-28T17:52:01.396Z,4.49
2023-03-28T17:54:53.356Z,4.43
2023-03-28T17:57:20.811Z,4.34
2023-03-28T17:59:47.616Z,4.25
2023-03-28T18:02:14.461Z,4.22
2023-03-28T18:04:47.734Z,4.20
2023-03-28T18:07:31.583Z,4.15
2023-03-28T18:10:01.113Z,4.11
2023-03-28T18:12:27.940Z,4.11
2023-03-28T18:15:02.467Z,4.12
2023-03-28T18:17:29.609Z,4.08
2023-03-28T18:19:56.538Z,4.01
2023-03-28T18:22:23.363Z,4.00
2023-03-28T18:24:50.232Z,3.97
2023-03-28T18:27:20.930Z,3.97
2023-03-28T18:29:47.688Z,3.95
2023-03-28T18:32:17.269Z,3.91
2023-03-28T18:34:52.151Z,3.96
2023-03-28T18:37:18.869Z,3.90
2023-03-28T18:39:46.348Z,3.87
2023-03-28T18:42:27.073Z,3.79
2023-03-28T18:44:54.847Z,3.75
2023-03-28T18:47:21.622Z,3.75
2023-03-28T18:49:54.494Z,3.88
2023-03-28T18:52:21.853Z,3.91
2023-03-28T18:54:49.328Z,3.89
2023-03-28T18:57:32.709Z,3.91
2023-03-28T19:00:15.705Z,3.84
2023-03-28T19:02:55.163Z,3.80
2023-03-28T19:05:22.111Z,3.81
2023-03-28T19:07:48.894Z,3.75
2023-03-28T19:10:25.920Z,3.70
2023-03-28T19:12:54.280Z,3.59
2023-03-28T19:15:21.094Z,3.50
2023-03-28T19:17:54.860Z,3.46
2023-03-28T19:20:21.646Z,3.35
2023-03-28T19:22:48.477Z,3.48
2023-03-28T19:25:24.887Z,3.37
2023-03-28T19:27:53.700Z,3.48
2023-03-28T19:30:20.524Z,3.55
2023-03-28T19:32:58.021Z,3.40
2023-03-28T19:35:24.948Z,3.32
2023-03-28T19:37:51.776Z,3.27
2023-03-28T19:40:28.208Z,3.49
2023-03-28T19:42:58.549Z,3.55
2023-03-28T19:45:25.937Z,3.50
2023-03-28T19:48:00.008Z,3.51
2023-03-28T19:50:27.072Z,3.58
2023-03-28T19:52:53.804Z,3.47
2023-03-28T19:55:29.233Z,3.66
2023-03-28T19:57:58.285Z,3.79
2023-03-28T20:00:25.635Z,3.61
2023-03-28T20:03:02.945Z,3.63
2023-03-28T20:05:29.881Z,3.68
2023-03-28T20:07:56.596Z,3.55
2023-03-28T20:10:32.441Z,3.54
2023-03-28T20:12:59.185Z,3.61
2023-03-28T20:15:25.897Z,3.70
2023-03-28T20:17:52.573Z,3.60
2023-03-28T20:20:28.089Z,3.51
2023-03-28T20:22:54.837Z,3.52
2023-03-28T20:25:21.621Z,3.49
2023-03-28T20:27:50.342Z,3.45
2023-03-28T20:30:20.401Z,3.50
2023-03-28T20:32:49.576Z,3.50
2023-03-28T20:35:16.527Z,3.49
2023-03-28T20:37:53.480Z,3.55
2023-03-28T20:40:21.406Z,3.55
2023-03-28T20:42:50.236Z,3.54
2023-03-28T20:45:23.306Z,3.57
2023-03-28T20:47:55.860Z,3.65
2023-03-28T20:50:23.809Z,3.75
2023-03-28T20:52:54.548Z,3.71
2023-03-28T20:55:21.700Z,3.73
2023-03-28T20:57:49.141Z,3.67
2023-03-28T21:00:25.600Z,3.59
2023-03-28T21:02:53.677Z,3.54
2023-03-28T21:05:22.504Z,3.47
2023-03-28T21:08:15.598Z,3.50
2023-03-28T21:10:42.426Z,3.44
2023-03-28T21:13:09.193Z,3.45
2023-03-28T21:15:36.318Z,3.46
2023-03-28T21:18:12.447Z,3.45
2023-03-28T21:20:39.183Z,3.38
2023-03-28T21:23:05.894Z,3.35
2023-03-28T21:25:41.284Z,3.43
2023-03-28T21:28:12.523Z,3.46
2023-03-28T21:30:40.337Z,3.44
2023-03-28T21:33:33.406Z,3.48
2023-03-28T21:36:07.302Z,3.46
2023-03-28T21:38:41.270Z,3.44
2023-03-28T21:41:11.301Z,3.39
2023-03-28T21:43:38.760Z,3.34
2023-03-28T21:46:12.812Z,3.46
2023-03-28T21:48:39.727Z,3.75
2023-03-28T21:51:13.041Z,4.01
2023-03-28T21:53:42.453Z,3.91
2023-03-28T21:56:11.567Z,3.77
2023-03-28T21:58:38.480Z,3.76
2023-03-28T22:01:30.412Z,3.63
2023-03-28T22:03:57.164Z,3.56
2023-03-28T22:06:24.064Z,3.57
2023-03-28T22:08:52.958Z,3.66
2023-03-28T22:11:30.570Z,3.85
2023-03-28T22:14:01.524Z,3.84
2023-03-28T22:16:40.509Z,3.82
2023-03-28T22:19:09.894Z,3.94
2023-03-28T22:21:44.566Z,3.81
2023-03-28T22:24:13.329Z,3.89
2023-03-28T22:26:41.157Z,4.08
2023-03-28T22:29:17.459Z,4.07
2023-03-28T22:31:44.265Z,4.17
2023-03-28T22:34:13.145Z,4.25
2023-03-28T22:39:41.365Z,4.52
2023-03-28T22:42:17.559Z,4.38
2023-03-28T22:44:44.357Z,4.37
2023-03-28T22:47:12.116Z,4.22
2023-03-28T22:49:45.296Z,4.18
2023-03-28T22:52:13.048Z,4.44
2023-03-28T22:54:48.418Z,4.58
2023-03-28T22:57:17.975Z,4.52
2023-03-28T22:59:44.639Z,4.67
2023-03-28T23:02:11.739Z,4.75
2023-03-28T23:04:47.754Z,4.67
2023-03-28T23:07:14.479Z,4.72
2023-03-28T23:09:44.052Z,4.58
2023-03-28T23:12:16.926Z,4.56
2023-03-28T23:14:43.642Z,4.59
2023-03-28T23:17:11.147Z,4.69
2023-03-28T23:19:37.831Z,4.63
2023-03-28T23:22:13.280Z,4.63
2023-03-28T23:24:40.217Z,4.58
2023-03-28T23:27:08.799Z,4.44
2023-03-28T23:29:36.424Z,4.47
2023-03-28T23:32:06.657Z,4.48
2023-03-28T23:34:33.507Z,4.66
2023-03-28T23:37:02.312Z,4.44
2023-03-28T23:39:38.207Z,4.45
2023-03-28T23:42:04.991Z,4.48
2023-03-28T23:44:31.669Z,4.60
2023-03-28T23:47:07.470Z,4.63
2023-03-28T23:49:34.150Z,4.51
2023-03-28T23:52:01.441Z,4.53
2023-03-28T23:54:37.360Z,4.60
2023-03-28T23:57:04.611Z,4.79
2023-03-28T23:59:31.236Z,4.74
